createdAt,value
2022-10-19T00:00:09.298Z,99.99
2022-10-19T00:01:09.188Z,99.99
2022-10-19T00:02:09.227Z,99.99
2022-10-19T00:03:09.265Z,99.99
2022-10-19T00:04:09.174Z,99.99
2022-10-19T00:05:10.226Z,99.99
2022-10-19T00:06:09.253Z,99.99
2022-10-19T00:07:09.205Z,99.99
2022-10-19T00:08:09.269Z,99.99
2022-10-19T00:09:09.231Z,99.99
2022-10-19T00:10:09.297Z,99.99
2022-10-19T00:11:09.149Z,99.99
2022-10-19T00:12:09.375Z,99.99
2022-10-19T00:13:09.226Z,99.99
2022-10-19T00:14:09.215Z,99.99
2022-10-19T00:15:09.223Z,99.99
2022-10-19T00:16:11.332Z,99.99
2022-10-19T00:17:09.059Z,99.99
2022-10-19T00:18:09.101Z,99.99
2022-10-19T00:19:09.153Z,99.99
2022-10-19T00:20:09.147Z,99.99
2022-10-19T00:21:09.131Z,99.99
2022-10-19T00:22:11.681Z,99.99
2022-10-19T00:23:09.103Z,99.99
2022-10-19T00:24:09.065Z,99.99
2022-10-19T00:25:09.100Z,99.99
2022-10-19T00:26:09.098Z,99.99
2022-10-19T00:27:09.093Z,99.99
2022-10-19T00:28:09.137Z,99.99
2022-10-19T00:29:09.170Z,99.99
2022-10-19T00:30:08.938Z,99.99
2022-10-19T00:31:08.978Z,99.99
2022-10-19T00:32:08.990Z,99.99
2022-10-19T00:33:09.079Z,99.99
2022-10-19T00:34:09.061Z,99.99
2022-10-19T00:35:08.967Z,99.99
2022-10-19T00:36:09.070Z,99.99
2022-10-19T00:37:09.010Z,99.99
2022-10-19T00:38:09.052Z,99.99
2022-10-19T00:39:09.013Z,99.99
2022-10-19T00:40:09.076Z,99.99
2022-10-19T00:41:08.963Z,99.99
2022-10-19T00:42:08.933Z,99.99
2022-10-19T00:43:08.927Z,99.99
2022-10-19T00:44:09.010Z,99.99
2022-10-19T00:45:08.886Z,99.99
2022-10-19T00:46:08.965Z,99.99
2022-10-19T00:47:08.808Z,99.99
2022-10-19T00:48:08.827Z,99.99
2022-10-19T00:49:10.820Z,99.99
2022-10-19T00:50:08.862Z,99.99
2022-10-19T00:51:08.870Z,99.99
2022-10-19T00:52:08.908Z,99.99
2022-10-19T00:53:08.891Z,99.99
2022-10-19T00:54:08.898Z,99.99
2022-10-19T00:55:08.903Z,99.99
2022-10-19T00:56:08.831Z,99.99
2022-10-19T00:57:08.892Z,99.99
2022-10-19T00:58:08.773Z,99.99
2022-10-19T00:59:08.849Z,99.99
2022-10-19T01:00:08.823Z,99.99
2022-10-19T01:01:08.998Z,99.99
2022-10-19T01:02:08.777Z,99.99
2022-10-19T01:03:08.901Z,99.99
2022-10-19T01:04:08.707Z,99.99
2022-10-19T01:05:08.748Z,99.99
2022-10-19T01:06:08.833Z,99.99
2022-10-19T01:07:08.791Z,99.99
2022-10-19T01:08:08.782Z,99.99
2022-10-19T01:09:09.809Z,99.99
2022-10-19T01:10:08.771Z,99.99
2022-10-19T01:11:08.733Z,99.99
2022-10-19T01:12:08.779Z,99.99
2022-10-19T01:13:08.731Z,99.99
2022-10-19T01:14:08.722Z,99.99
2022-10-19T01:15:08.786Z,99.99
2022-10-19T01:16:08.747Z,99.99
2022-10-19T01:17:08.858Z,99.99
2022-10-19T01:18:08.684Z,99.99
2022-10-19T01:19:08.672Z,99.99
2022-10-19T01:20:08.654Z,99.99
2022-10-19T01:21:08.582Z,99.99
2022-10-19T01:22:08.790Z,99.99
2022-10-19T01:23:08.698Z,99.99
2022-10-19T01:24:08.749Z,99.99
2022-10-19T01:25:08.650Z,99.99
2022-10-19T01:26:08.654Z,99.99
2022-10-19T01:27:08.650Z,99.99
2022-10-19T01:28:08.683Z,99.99
2022-10-19T01:29:08.675Z,99.99
2022-10-19T01:30:09.688Z,99.99
2022-10-19T01:31:08.592Z,99.99
2022-10-19T01:32:08.585Z,99.99
2022-10-19T01:33:08.481Z,99.99
2022-10-19T01:34:08.558Z,99.99
2022-10-19T01:35:08.573Z,99.99
2022-10-19T01:36:08.550Z,99.99
2022-10-19T01:37:08.585Z,99.99
2022-10-19T01:38:08.541Z,99.99
2022-10-19T01:39:08.588Z,99.99
2022-10-19T01:40:08.583Z,99.99
2022-10-19T01:41:08.532Z,99.99
2022-10-19T01:42:08.534Z,99.99
2022-10-19T01:43:08.576Z,99.99
2022-10-19T01:44:08.529Z,99.99
2022-10-19T01:45:08.632Z,99.99
2022-10-19T01:46:08.474Z,99.99
2022-10-19T01:47:08.542Z,99.99
2022-10-19T01:48:08.427Z,99.99
2022-10-19T01:49:08.387Z,99.99
2022-10-19T01:50:08.403Z,99.99
2022-10-19T01:51:08.366Z,99.99
2022-10-19T01:52:08.475Z,99.99
2022-10-19T01:53:08.432Z,99.99
2022-10-19T01:54:08.452Z,99.99
2022-10-19T01:55:08.511Z,99.99
2022-10-19T01:56:08.431Z,99.99
2022-10-19T01:57:08.426Z,99.99
2022-10-19T01:58:09.616Z,99.99
2022-10-19T01:59:08.412Z,99.99
2022-10-19T02:00:08.431Z,99.99
2022-10-19T02:01:08.552Z,99.99
2022-10-19T02:02:08.475Z,99.99
2022-10-19T02:03:08.349Z,99.99
2022-10-19T02:04:08.390Z,99.99
2022-10-19T02:05:09.211Z,99.99
2022-10-19T02:06:08.349Z,99.99
2022-10-19T02:07:08.353Z,99.99
2022-10-19T02:08:08.377Z,99.99
2022-10-19T02:09:08.345Z,99.99
2022-10-19T02:10:08.461Z,99.99
2022-10-19T02:11:08.316Z,99.99
2022-10-19T02:12:08.346Z,99.99
2022-10-19T02:13:08.335Z,99.99
2022-10-19T02:14:08.297Z,99.99
2022-10-19T02:15:08.313Z,99.99
2022-10-19T02:16:08.262Z,99.99
2022-10-19T02:17:08.622Z,99.99
2022-10-19T02:18:08.305Z,99.99
2022-10-19T02:19:08.170Z,99.99
2022-10-19T02:20:08.133Z,99.99
2022-10-19T02:21:09.262Z,99.99
2022-10-19T02:22:08.186Z,99.99
2022-10-19T02:23:08.271Z,99.99
2022-10-19T02:24:08.288Z,99.99
2022-10-19T02:25:08.262Z,99.99
2022-10-19T02:26:08.264Z,99.99
2022-10-19T02:27:08.253Z,99.99
2022-10-19T02:28:08.288Z,99.99
2022-10-19T02:29:08.277Z,99.99
2022-10-19T02:30:08.188Z,99.99
2022-10-19T02:31:08.223Z,99.99
2022-10-19T02:32:08.183Z,99.99
2022-10-19T02:33:08.094Z,99.99
2022-10-19T02:34:08.077Z,99.99
2022-10-19T02:35:08.078Z,99.99
2022-10-19T02:36:08.044Z,99.99
2022-10-19T02:37:08.064Z,99.99
2022-10-19T02:38:09.076Z,99.99
2022-10-19T02:39:08.120Z,99.99
2022-10-19T02:40:07.999Z,99.99
2022-10-19T02:41:08.023Z,99.99
2022-10-19T02:42:08.096Z,99.99
2022-10-19T02:43:08.113Z,99.99
2022-10-19T02:44:08.099Z,99.99
2022-10-19T02:45:08.134Z,99.99
2022-10-19T02:46:08.131Z,99.99
2022-10-19T02:47:08.048Z,99.99
2022-10-19T02:48:08.066Z,99.99
2022-10-19T02:49:08.129Z,99.99
2022-10-19T02:50:08.145Z,99.99
2022-10-19T02:51:08.106Z,99.99
2022-10-19T02:52:08.075Z,99.99
2022-10-19T02:53:08.017Z,99.99
2022-10-19T02:54:08.085Z,99.99
2022-10-19T02:55:07.933Z,99.99
2022-10-19T02:56:07.936Z,99.99
2022-10-19T02:57:08.063Z,99.99
2022-10-19T02:58:07.928Z,99.99
2022-10-19T02:59:07.987Z,99.99
2022-10-19T03:00:07.984Z,99.99
2022-10-19T03:01:08.050Z,99.99
2022-10-19T03:02:07.970Z,99.99
2022-10-19T03:03:07.946Z,99.99
2022-10-19T03:04:07.937Z,99.99
2022-10-19T03:05:07.952Z,99.99
2022-10-19T03:06:07.937Z,99.99
2022-10-19T03:07:07.940Z,99.99
2022-10-19T03:08:07.941Z,99.99
2022-10-19T03:09:07.816Z,99.99
2022-10-19T03:10:07.837Z,99.99
2022-10-19T03:11:07.927Z,99.99
2022-10-19T03:12:07.831Z,99.99
2022-10-19T03:13:07.823Z,99.99
2022-10-19T03:14:07.832Z,99.99
2022-10-19T03:15:07.770Z,99.99
2022-10-19T03:16:07.874Z,99.99
2022-10-19T03:17:07.992Z,99.99
2022-10-19T03:18:07.853Z,99.99
2022-10-19T03:19:07.925Z,99.99
2022-10-19T03:20:07.829Z,99.99
2022-10-19T03:21:07.815Z,99.99
2022-10-19T03:22:07.814Z,99.99
2022-10-19T03:23:08.053Z,99.99
2022-10-19T03:24:07.811Z,99.99
2022-10-19T03:25:07.835Z,99.99
2022-10-19T03:26:10.048Z,99.99
2022-10-19T03:27:07.784Z,99.99
2022-10-19T03:28:08.874Z,99.99
2022-10-19T03:29:07.672Z,99.99
2022-10-19T03:30:07.703Z,99.99
2022-10-19T03:31:07.737Z,99.99
2022-10-19T03:32:07.700Z,99.99
2022-10-19T03:33:07.846Z,99.99
2022-10-19T03:34:07.748Z,99.99
2022-10-19T03:35:07.730Z,99.99
2022-10-19T03:36:07.735Z,99.99
2022-10-19T03:37:07.726Z,99.99
2022-10-19T03:38:07.740Z,99.99
2022-10-19T03:39:07.780Z,99.99
2022-10-19T03:40:07.749Z,99.99
2022-10-19T03:41:07.736Z,99.99
2022-10-19T03:42:07.782Z,99.99
2022-10-19T03:43:07.660Z,99.99
2022-10-19T03:44:07.718Z,99.99
2022-10-19T03:45:07.639Z,99.99
2022-10-19T03:46:07.634Z,99.99
2022-10-19T03:47:07.660Z,99.99
2022-10-19T03:48:07.604Z,99.99
2022-10-19T03:49:07.533Z,99.99
2022-10-19T03:50:07.689Z,99.99
2022-10-19T03:51:07.507Z,99.99
2022-10-19T03:52:07.542Z,99.99
2022-10-19T03:53:07.573Z,99.99
2022-10-19T03:54:07.499Z,99.99
2022-10-19T03:55:07.615Z,99.99
2022-10-19T03:56:07.635Z,99.99
2022-10-19T03:57:07.633Z,99.99
2022-10-19T03:58:07.582Z,99.99
2022-10-19T03:59:07.642Z,99.99
2022-10-19T04:00:07.571Z,99.99
2022-10-19T04:01:07.709Z,99.99
2022-10-19T04:02:07.611Z,99.99
2022-10-19T04:03:07.566Z,99.99
2022-10-19T04:04:07.527Z,99.99
2022-10-19T04:05:07.515Z,99.99
2022-10-19T04:06:07.545Z,99.99
2022-10-19T04:07:07.513Z,99.99
2022-10-19T04:08:07.402Z,99.99
2022-10-19T04:09:07.496Z,99.99
2022-10-19T04:10:07.377Z,99.99
2022-10-19T04:11:07.495Z,99.99
2022-10-19T04:12:07.525Z,99.99
2022-10-19T04:13:07.470Z,99.99
2022-10-19T04:14:07.503Z,99.99
2022-10-19T04:15:07.481Z,99.99
2022-10-19T04:16:07.454Z,99.99
2022-10-19T04:17:07.462Z,99.99
2022-10-19T04:18:07.441Z,99.99
2022-10-19T04:19:08.008Z,99.99
2022-10-19T04:20:07.383Z,99.99
2022-10-19T04:21:07.419Z,99.99
2022-10-19T04:22:07.428Z,99.99
2022-10-19T04:23:07.704Z,99.99
2022-10-19T04:24:07.413Z,99.99
2022-10-19T04:25:07.377Z,99.99
2022-10-19T04:26:07.412Z,99.99
2022-10-19T04:27:07.575Z,99.99
2022-10-19T04:28:07.270Z,99.99
2022-10-19T04:29:07.303Z,99.99
2022-10-19T04:30:07.366Z,99.99
2022-10-19T04:31:07.288Z,99.99
2022-10-19T04:32:07.391Z,99.99
2022-10-19T04:33:07.380Z,99.99
2022-10-19T04:34:07.315Z,99.99
2022-10-19T04:35:07.293Z,99.99
2022-10-19T04:36:07.304Z,99.99
2022-10-19T04:37:07.317Z,99.99
2022-10-19T04:38:07.435Z,99.99
2022-10-19T04:39:07.236Z,99.99
2022-10-19T04:40:09.461Z,99.99
2022-10-19T04:41:08.231Z,99.99
2022-10-19T04:42:07.212Z,99.99
2022-10-19T04:43:07.157Z,99.99
2022-10-19T04:44:07.144Z,99.99
2022-10-19T04:45:07.284Z,99.99
2022-10-19T04:46:07.190Z,99.99
2022-10-19T04:47:07.448Z,99.99
2022-10-19T04:48:07.185Z,99.99
2022-10-19T04:49:07.248Z,99.99
2022-10-19T04:50:07.156Z,99.99
2022-10-19T04:51:07.149Z,99.99
2022-10-19T04:52:07.167Z,99.99
2022-10-19T04:53:07.132Z,99.99
2022-10-19T04:54:07.111Z,99.99
2022-10-19T04:55:08.174Z,99.99
2022-10-19T04:56:07.111Z,99.99
2022-10-19T04:57:07.135Z,99.99
2022-10-19T04:58:07.039Z,99.99
2022-10-19T04:59:07.131Z,99.99
2022-10-19T05:00:07.027Z,99.99
2022-10-19T05:01:07.178Z,99.99
2022-10-19T05:02:07.086Z,99.99
2022-10-19T05:03:07.019Z,99.99
2022-10-19T05:04:07.088Z,99.99
2022-10-19T05:05:07.054Z,99.99
2022-10-19T05:06:07.111Z,99.99
2022-10-19T05:07:07.057Z,99.99
2022-10-19T05:08:07.122Z,99.99
2022-10-19T05:09:07.051Z,99.99
2022-10-19T05:10:07.065Z,99.99
2022-10-19T05:11:07.009Z,99.99
2022-10-19T05:12:07.065Z,99.99
2022-10-19T05:13:07.013Z,99.99
2022-10-19T05:14:07.082Z,99.99
2022-10-19T05:15:06.939Z,99.99
2022-10-19T05:16:06.891Z,99.99
2022-10-19T05:17:06.955Z,99.99
2022-10-19T05:18:06.883Z,99.99
2022-10-19T05:19:06.885Z,99.99
2022-10-19T05:20:06.874Z,99.99
2022-10-19T05:21:06.865Z,99.99
2022-10-19T05:22:06.859Z,99.99
2022-10-19T05:23:07.456Z,99.99
2022-10-19T05:24:06.840Z,99.99
2022-10-19T05:25:06.968Z,99.99
2022-10-19T05:26:07.650Z,99.99
2022-10-19T05:27:07.027Z,99.99
2022-10-19T05:28:06.991Z,99.99
2022-10-19T05:29:06.962Z,99.99
2022-10-19T05:30:06.892Z,99.99
2022-10-19T05:31:06.899Z,99.99
2022-10-19T05:32:06.884Z,99.99
2022-10-19T05:33:06.854Z,99.99
2022-10-19T05:35:06.773Z,99.99
2022-10-19T05:36:06.766Z,99.99
2022-10-19T05:37:06.877Z,99.99
2022-10-19T05:38:06.731Z,99.99
2022-10-19T05:39:06.766Z,99.99
2022-10-19T05:40:06.785Z,99.99
2022-10-19T05:41:06.748Z,99.99
2022-10-19T05:42:06.746Z,99.99
2022-10-19T05:43:06.743Z,99.99
2022-10-19T05:44:06.886Z,99.99
2022-10-19T05:45:06.887Z,99.99
2022-10-19T05:46:06.853Z,99.99
2022-10-19T05:47:06.836Z,99.99
2022-10-19T05:48:06.769Z,99.99
2022-10-19T05:49:06.863Z,99.99
2022-10-19T05:50:06.806Z,99.99
2022-10-19T05:51:06.766Z,99.99
2022-10-19T05:52:06.722Z,99.99
2022-10-19T05:53:06.740Z,99.99
2022-10-19T05:54:06.701Z,99.99
2022-10-19T05:55:06.657Z,99.99
2022-10-19T05:56:06.606Z,99.99
2022-10-19T05:57:06.688Z,99.99
2022-10-19T05:58:06.591Z,99.99
2022-10-19T05:59:06.600Z,99.99
2022-10-19T06:00:06.746Z,99.99
2022-10-19T06:01:06.649Z,99.99
2022-10-19T06:02:06.690Z,99.99
2022-10-19T06:03:06.667Z,99.99
2022-10-19T06:04:06.661Z,99.99
2022-10-19T06:05:06.654Z,99.99
2022-10-19T06:06:06.709Z,99.99
2022-10-19T06:07:06.633Z,99.99
2022-10-19T06:08:06.689Z,99.99
2022-10-19T06:09:06.619Z,99.99
2022-10-19T06:10:06.672Z,99.99
2022-10-19T06:11:07.190Z,99.99
2022-10-19T06:12:06.516Z,99.99
2022-10-19T06:13:06.513Z,99.99
2022-10-19T06:14:06.496Z,99.99
2022-10-19T06:15:06.570Z,99.99
2022-10-19T06:16:06.524Z,99.99
2022-10-19T06:17:06.590Z,99.99
2022-10-19T06:18:06.561Z,99.99
2022-10-19T06:19:06.559Z,99.99
2022-10-19T06:20:06.541Z,99.99
2022-10-19T06:21:06.553Z,99.99
2022-10-19T06:22:06.587Z,99.99
2022-10-19T06:23:06.499Z,99.99
2022-10-19T06:24:06.498Z,99.99
2022-10-19T06:25:06.500Z,99.99
2022-10-19T06:26:06.535Z,99.99
2022-10-19T06:27:06.429Z,99.99
2022-10-19T06:28:06.436Z,99.99
2022-10-19T06:29:06.474Z,99.99
2022-10-19T06:30:06.486Z,99.99
2022-10-19T06:31:08.555Z,99.99
2022-10-19T06:32:06.436Z,99.99
2022-10-19T06:33:06.925Z,99.99
2022-10-19T06:34:06.481Z,99.99
2022-10-19T06:35:06.571Z,99.99
2022-10-19T06:36:06.413Z,99.99
2022-10-19T06:37:06.435Z,99.99
2022-10-19T06:38:06.499Z,99.99
2022-10-19T06:39:06.469Z,99.99
2022-10-19T06:40:07.331Z,99.99
2022-10-19T06:41:07.413Z,99.99
2022-10-19T06:42:06.325Z,99.99
2022-10-19T06:43:06.293Z,99.99
2022-10-19T06:44:07.169Z,99.99
2022-10-19T06:45:06.291Z,99.99
2022-10-19T06:46:06.365Z,99.99
2022-10-19T06:47:08.130Z,99.99
2022-10-19T06:48:07.723Z,99.99
2022-10-19T06:49:07.368Z,99.99
2022-10-19T06:50:06.368Z,99.99
2022-10-19T06:51:06.626Z,99.99
2022-10-19T06:52:06.330Z,99.99
2022-10-19T06:53:06.309Z,99.99
2022-10-19T06:54:06.365Z,99.99
2022-10-19T06:55:06.319Z,99.99
2022-10-19T06:56:06.256Z,99.99
2022-10-19T06:57:06.202Z,99.99
2022-10-19T06:58:06.175Z,99.99
2022-10-19T06:59:06.163Z,99.99
2022-10-19T07:00:06.229Z,99.99
2022-10-19T07:01:06.203Z,99.99
2022-10-19T07:02:06.159Z,99.99
2022-10-19T07:03:06.138Z,99.99
2022-10-19T07:04:06.150Z,99.99
2022-10-19T07:05:07.240Z,99.99
2022-10-19T07:06:07.164Z,99.99
2022-10-19T07:07:06.163Z,99.99
2022-10-19T07:08:07.162Z,99.99
2022-10-19T07:09:06.175Z,99.99
2022-10-19T07:10:06.487Z,99.99
2022-10-19T07:11:06.191Z,99.99
2022-10-19T07:12:06.173Z,99.99
2022-10-19T07:13:07.198Z,99.99
2022-10-19T07:14:06.180Z,99.99
2022-10-19T07:15:06.209Z,99.99
2022-10-19T07:16:06.163Z,99.99
2022-10-19T07:17:06.211Z,99.99
2022-10-19T07:18:06.137Z,99.99
2022-10-19T07:19:06.017Z,99.99
2022-10-19T07:20:06.037Z,99.99
2022-10-19T07:21:06.030Z,99.99
2022-10-19T07:22:06.049Z,99.99
2022-10-19T07:23:06.111Z,99.99
2022-10-19T07:24:06.128Z,99.99
2022-10-19T07:25:06.086Z,99.99
2022-10-19T07:26:06.046Z,99.99
2022-10-19T07:27:06.050Z,99.99
2022-10-19T07:28:06.106Z,99.99
2022-10-19T07:29:06.055Z,99.99
2022-10-19T07:30:05.959Z,99.99
2022-10-19T07:31:06.072Z,99.99
2022-10-19T07:32:06.021Z,99.99
2022-10-19T07:33:06.106Z,99.99
2022-10-19T07:34:06.029Z,99.99
2022-10-19T07:35:05.992Z,99.99
2022-10-19T07:36:06.032Z,99.99
2022-10-19T07:37:05.982Z,99.99
2022-10-19T07:38:06.061Z,99.99
2022-10-19T07:39:06.309Z,99.99
2022-10-19T07:40:05.876Z,99.99
2022-10-19T07:41:05.895Z,99.99
2022-10-19T07:42:05.971Z,99.99
2022-10-19T07:43:05.845Z,99.99
2022-10-19T07:44:06.062Z,99.99
2022-10-19T07:45:05.939Z,99.99
2022-10-19T07:46:05.998Z,99.99
2022-10-19T07:47:05.899Z,99.99
2022-10-19T07:48:05.913Z,99.99
2022-10-19T07:49:05.889Z,99.99
2022-10-19T07:50:05.943Z,99.99
2022-10-19T07:51:05.889Z,99.99
2022-10-19T07:52:05.879Z,99.99
2022-10-19T07:53:05.920Z,99.99
2022-10-19T07:54:05.798Z,99.99
2022-10-19T07:55:05.812Z,99.99
2022-10-19T07:56:05.846Z,99.99
2022-10-19T07:57:05.737Z,99.99
2022-10-19T07:58:05.738Z,99.99
2022-10-19T07:59:05.736Z,99.99
2022-10-19T08:00:05.747Z,99.99
2022-10-19T08:01:05.776Z,99.99
2022-10-19T08:02:05.840Z,99.99
2022-10-19T08:05:11.476Z,99.99
2022-10-19T08:06:06.737Z,99.99
2022-10-19T08:07:05.821Z,99.99
2022-10-19T08:08:05.806Z,99.99
2022-10-19T08:09:05.849Z,99.99
2022-10-19T08:10:05.739Z,99.99
2022-10-19T08:11:05.756Z,99.99
2022-10-19T08:12:05.899Z,99.99
2022-10-19T08:13:05.732Z,99.99
2022-10-19T08:14:05.762Z,99.99
2022-10-19T08:15:05.725Z,99.99
2022-10-19T08:16:05.612Z,99.99
2022-10-19T08:17:05.627Z,99.99
2022-10-19T08:18:05.710Z,99.99
2022-10-19T08:19:05.849Z,99.99
2022-10-19T08:20:05.585Z,99.99
2022-10-19T08:21:05.684Z,99.60
2022-10-19T08:22:05.742Z,99.03
2022-10-19T08:23:05.657Z,99.03
2022-10-19T08:24:05.741Z,99.79
2022-10-19T08:25:05.655Z,99.99
2022-10-19T08:26:05.713Z,99.99
2022-10-19T08:27:05.647Z,99.99
2022-10-19T08:28:05.671Z,99.03
2022-10-19T08:29:05.597Z,99.34
2022-10-19T08:30:05.611Z,99.34
2022-10-19T08:31:05.555Z,98.83
2022-10-19T08:32:05.496Z,99.65
2022-10-19T08:33:06.355Z,99.99
2022-10-19T08:34:05.662Z,99.45
2022-10-19T08:35:09.935Z,99.51
2022-10-19T08:36:07.521Z,98.54
2022-10-19T08:37:14.684Z,97.46
2022-10-19T08:38:07.546Z,97.30
2022-10-19T08:39:05.553Z,97.61
2022-10-19T08:40:05.572Z,98.22
2022-10-19T08:41:05.613Z,97.97
2022-10-19T08:42:05.549Z,98.54
2022-10-19T08:43:05.534Z,97.62
2022-10-19T08:44:07.726Z,97.31
2022-10-19T08:45:05.602Z,96.25
2022-10-19T08:46:05.524Z,95.84
2022-10-19T08:47:07.199Z,95.63
2022-10-19T08:48:05.475Z,95.37
2022-10-19T08:49:05.432Z,95.37
2022-10-19T08:50:05.396Z,96.08
2022-10-19T08:51:05.442Z,95.94
2022-10-19T08:52:05.375Z,95.12
2022-10-19T08:53:05.359Z,96.04
2022-10-19T08:54:05.340Z,95.02
2022-10-19T08:55:05.436Z,95.12
2022-10-19T08:56:05.347Z,95.53
2022-10-19T08:57:05.409Z,94.87
2022-10-19T08:58:06.315Z,94.36
2022-10-19T08:59:05.425Z,95.38
2022-10-19T09:00:06.075Z,95.59
2022-10-19T09:01:05.405Z,95.34
2022-10-19T09:02:05.373Z,95.23
2022-10-19T09:03:05.353Z,94.78
2022-10-19T09:04:05.405Z,94.37
2022-10-19T09:05:05.353Z,93.55
2022-10-19T09:06:05.418Z,92.23
2022-10-19T09:07:05.342Z,92.84
2022-10-19T09:08:05.383Z,92.43
2022-10-19T09:09:05.416Z,92.02
2022-10-19T09:10:05.403Z,91.72
2022-10-19T09:11:05.362Z,92.02
2022-10-19T09:12:05.268Z,91.41
2022-10-19T09:13:05.290Z,92.07
2022-10-19T09:14:05.914Z,92.33
2022-10-19T09:15:05.216Z,92.02
2022-10-19T09:16:05.254Z,91.92
2022-10-19T09:17:05.238Z,91.15
2022-10-19T09:18:05.184Z,91.52
2022-10-19T09:19:05.197Z,91.31
2022-10-19T09:20:05.266Z,91.00
2022-10-19T09:21:05.233Z,90.49
2022-10-19T09:22:05.340Z,90.94
2022-10-19T09:23:06.812Z,92.68
2022-10-19T09:24:05.230Z,93.38
2022-10-19T09:25:05.216Z,95.78
2022-10-19T09:26:05.214Z,95.06
2022-10-19T09:27:05.197Z,93.98
2022-10-19T09:28:05.282Z,95.56
2022-10-19T09:29:05.240Z,95.46
2022-10-19T09:30:05.169Z,96.63
2022-10-19T09:31:05.276Z,95.97
2022-10-19T09:32:05.169Z,96.48
2022-10-19T09:33:05.723Z,96.23
2022-10-19T09:34:05.169Z,96.39
2022-10-19T09:35:05.103Z,95.51
2022-10-19T09:36:05.135Z,95.57
2022-10-19T09:37:05.247Z,94.75
2022-10-19T09:38:05.150Z,94.34
2022-10-19T09:39:05.179Z,94.80
2022-10-19T09:40:05.248Z,95.72
2022-10-19T09:41:05.133Z,96.39
2022-10-19T09:42:05.121Z,96.49
2022-10-19T09:43:05.178Z,96.66
2022-10-19T09:44:05.147Z,95.89
2022-10-19T09:45:05.000Z,95.54
2022-10-19T09:46:11.596Z,94.21
2022-10-19T09:47:09.065Z,92.78
2022-10-19T09:48:12.179Z,91.72
2022-10-19T09:49:06.138Z,91.61
2022-10-19T09:50:04.998Z,93.45
2022-10-19T09:51:04.959Z,93.19
2022-10-19T09:52:04.989Z,92.43
2022-10-19T09:53:04.993Z,92.02
2022-10-19T09:54:04.999Z,92.43
2022-10-19T09:55:04.975Z,91.52
2022-10-19T09:56:04.962Z,91.57
2022-10-19T09:57:05.024Z,90.86
2022-10-19T09:58:04.957Z,92.02
2022-10-19T09:59:04.912Z,91.52
2022-10-19T10:00:05.038Z,92.94
2022-10-19T10:01:05.039Z,91.96
2022-10-19T10:02:05.190Z,93.76
2022-10-19T10:03:05.031Z,93.45
2022-10-19T10:04:05.036Z,92.33
2022-10-19T10:05:05.024Z,91.86
2022-10-19T10:06:05.321Z,92.27
2022-10-19T10:07:05.073Z,92.74
2022-10-19T10:08:05.063Z,93.55
2022-10-19T10:09:05.109Z,93.71
2022-10-19T10:10:05.164Z,92.33
2022-10-19T10:11:04.984Z,92.33
2022-10-19T10:12:04.945Z,91.47
2022-10-19T10:13:04.914Z,91.31
2022-10-19T10:14:07.516Z,91.78
2022-10-19T10:15:05.838Z,93.05
2022-10-19T10:16:04.836Z,92.80
2022-10-19T10:17:04.990Z,92.49
2022-10-19T10:18:04.797Z,92.90
2022-10-19T10:19:04.957Z,90.90
2022-10-19T10:20:04.859Z,91.67
2022-10-19T10:21:06.946Z,92.08
2022-10-19T10:22:04.915Z,91.63
2022-10-19T10:23:04.823Z,91.12
2022-10-19T10:24:04.844Z,89.79
2022-10-19T10:25:04.826Z,90.57
2022-10-19T10:26:04.858Z,89.04
2022-10-19T10:27:04.884Z,89.25
2022-10-19T10:28:04.873Z,88.88
2022-10-19T10:29:04.737Z,90.92
2022-10-19T10:30:04.757Z,91.59
2022-10-19T10:31:04.744Z,90.98
2022-10-19T10:32:04.864Z,89.55
2022-10-19T10:33:15.896Z,88.32
2022-10-19T10:34:16.340Z,88.06
2022-10-19T10:35:06.677Z,89.39
2022-10-19T10:36:04.676Z,90.67
2022-10-19T10:37:04.761Z,89.25
2022-10-19T10:38:04.720Z,91.28
2022-10-19T10:39:04.784Z,90.98
2022-10-19T10:40:05.140Z,89.67
2022-10-19T10:41:04.698Z,89.36
2022-10-19T10:42:04.910Z,86.96
2022-10-19T10:43:04.897Z,88.59
2022-10-19T10:44:05.295Z,86.35
2022-10-19T10:45:06.353Z,86.92
2022-10-19T10:46:04.822Z,87.69
2022-10-19T10:47:04.765Z,88.10
2022-10-19T10:48:04.727Z,87.38
2022-10-19T10:49:04.719Z,88.20
2022-10-19T10:50:04.792Z,86.88
2022-10-19T10:51:04.706Z,86.16
2022-10-19T10:52:04.795Z,86.06
2022-10-19T10:53:04.681Z,86.37
2022-10-19T10:54:04.567Z,86.13
2022-10-19T10:55:04.624Z,85.05
2022-10-19T10:56:04.539Z,85.51
2022-10-19T10:57:06.628Z,85.11
2022-10-19T10:58:04.552Z,85.00
2022-10-19T10:59:04.539Z,85.21
2022-10-19T11:00:04.527Z,84.86
2022-10-19T11:01:07.752Z,84.15
2022-10-19T11:02:04.626Z,84.82
2022-10-19T11:03:04.705Z,84.42
2022-10-19T11:04:04.643Z,83.09
2022-10-19T11:05:04.728Z,83.20
2022-10-19T11:06:04.730Z,82.54
2022-10-19T11:07:04.499Z,82.75
2022-10-19T11:08:04.507Z,80.78
2022-10-19T11:09:04.556Z,79.97
2022-10-19T11:10:04.559Z,78.24
2022-10-19T11:11:04.576Z,75.80
2022-10-19T11:12:04.605Z,75.90
2022-10-19T11:13:04.485Z,76.48
2022-10-19T11:14:04.483Z,76.78
2022-10-19T11:15:04.549Z,74.44
2022-10-19T11:16:04.593Z,76.24
2022-10-19T11:17:05.128Z,76.44
2022-10-19T11:18:04.567Z,74.17
2022-10-19T11:19:04.374Z,76.24
2022-10-19T11:20:04.347Z,76.24
2022-10-19T11:21:04.448Z,75.70
2022-10-19T11:22:04.343Z,76.61
2022-10-19T11:23:04.365Z,75.93
2022-10-19T11:24:04.418Z,76.20
2022-10-19T11:25:04.276Z,76.03
2022-10-19T11:26:04.618Z,75.32
2022-10-19T11:27:04.488Z,75.43
2022-10-19T11:28:04.702Z,76.24
2022-10-19T11:29:04.421Z,75.52
2022-10-19T11:30:04.360Z,75.12
2022-10-19T11:31:04.352Z,75.43
2022-10-19T11:32:04.318Z,76.00
2022-10-19T11:33:04.350Z,75.46
2022-10-19T11:34:04.388Z,75.39
2022-10-19T11:35:04.366Z,74.34
2022-10-19T11:36:04.384Z,74.38
2022-10-19T11:37:04.347Z,74.27
2022-10-19T11:38:19.759Z,72.34
2022-10-19T11:39:06.453Z,72.96
2022-10-19T11:40:04.310Z,71.84
2022-10-19T11:41:19.775Z,72.85
2022-10-19T11:42:06.372Z,72.04
2022-10-19T11:43:04.234Z,72.85
2022-10-19T11:44:04.201Z,72.31
2022-10-19T11:45:04.307Z,72.72
2022-10-19T11:46:04.175Z,73.09
2022-10-19T11:47:04.166Z,73.66
2022-10-19T11:48:04.123Z,70.52
2022-10-19T11:49:04.109Z,70.52
2022-10-19T11:50:04.210Z,70.89
2022-10-19T11:51:17.305Z,71.00
2022-10-19T11:52:06.128Z,70.69
2022-10-19T11:53:04.069Z,69.88
2022-10-19T11:54:04.199Z,70.42
2022-10-19T11:55:04.216Z,70.32
2022-10-19T11:56:04.155Z,70.52
2022-10-19T11:57:07.270Z,69.41
2022-10-19T11:58:06.221Z,69.81
2022-10-19T11:59:04.235Z,69.71
2022-10-19T12:00:14.362Z,70.01
2022-10-19T12:01:06.381Z,70.76
2022-10-19T12:02:04.278Z,70.79
2022-10-19T12:03:04.168Z,70.92
2022-10-19T12:04:04.184Z,70.86
2022-10-19T12:05:04.123Z,72.72
2022-10-19T12:06:04.265Z,74.55
2022-10-19T12:07:04.151Z,74.21
2022-10-19T12:08:04.112Z,74.07
2022-10-19T12:09:04.249Z,71.53
2022-10-19T12:10:03.999Z,72.21
2022-10-19T12:11:03.995Z,71.97
2022-10-19T12:12:04.034Z,72.38
2022-10-19T12:13:03.990Z,72.14
2022-10-19T12:14:03.994Z,71.64
2022-10-19T12:15:03.978Z,70.39
2022-10-19T12:16:03.997Z,70.89
2022-10-19T12:17:04.041Z,70.65
2022-10-19T12:18:04.035Z,70.86
2022-10-19T12:19:04.055Z,70.65
2022-10-19T12:20:03.998Z,71.03
2022-10-19T12:21:03.989Z,70.22
2022-10-19T12:22:03.977Z,70.12
2022-10-19T12:23:04.021Z,70.02
2022-10-19T12:24:03.951Z,68.50
2022-10-19T12:25:03.981Z,69.48
2022-10-19T12:26:04.023Z,68.57
2022-10-19T12:27:03.945Z,67.66
2022-10-19T12:28:03.965Z,67.96
2022-10-19T12:29:03.933Z,68.53
2022-10-19T12:30:03.833Z,69.65
2022-10-19T12:31:03.985Z,68.33
2022-10-19T12:32:03.873Z,68.70
2022-10-19T12:33:03.858Z,69.68
2022-10-19T12:34:03.970Z,66.92
2022-10-19T12:35:03.813Z,66.45
2022-10-19T12:36:03.852Z,66.25
2022-10-19T12:37:03.879Z,66.96
2022-10-19T12:38:03.875Z,65.44
2022-10-19T12:39:03.909Z,64.53
2022-10-19T12:40:03.924Z,64.10
2022-10-19T12:41:03.840Z,63.90
2022-10-19T12:42:03.869Z,61.75
2022-10-19T12:43:03.851Z,61.77
2022-10-19T12:44:03.818Z,62.09
2022-10-19T12:45:04.916Z,60.89
2022-10-19T12:46:03.793Z,58.93
2022-10-19T12:47:03.807Z,58.42
2022-10-19T12:48:03.866Z,54.22
2022-10-19T12:49:03.722Z,54.47
2022-10-19T12:50:03.747Z,52.77
2022-10-19T12:51:03.774Z,52.67
2022-10-19T12:52:03.693Z,52.62
2022-10-19T12:53:04.688Z,51.47
2022-10-19T12:54:04.067Z,51.42
2022-10-19T12:55:03.685Z,52.02